Time;durP1;ratioP1;P1;durP2;ratioP2;P2;SDS_P1;SDS_P2;PMS_P1;PMS_P2;Temp;Humidity;BMP_temperature;BMP_pressure;BME280_temperature;BME280_humidity;BME280_pressure;Samples;Min_cycle;Max_cycle;Signal;HPM_P1;HPM_P2
2022/08/18 00:02:12;;;;;;;9.57;3.75;;;19.80;99.90;;;;;;4957829;28;37770;-60
2022/08/18 00:04:40;;;;;;;11.18;3.63;;;19.80;99.90;;;;;;4957273;28;38650;-60
2022/08/18 00:07:10;;;;;;;11.38;3.58;;;19.70;99.90;;;;;;4958546;28;37044;-61
2022/08/18 00:09:38;;;;;;;11.20;4.03;;;19.70;99.90;;;;;;4957227;28;38822;-61
2022/08/18 00:12:09;;;;;;;13.00;3.90;;;19.70;99.90;;;;;;4958986;28;36755;-60
2022/08/18 00:14:36;;;;;;;8.60;3.30;;;19.60;99.90;;;;;;4956916;28;38662;-60
2022/08/18 00:17:04;;;;;;;10.75;3.83;;;19.70;99.90;;;;;;4958511;28;36518;-61
2022/08/18 00:19:32;;;;;;;17.13;4.20;;;19.70;99.90;;;;;;4957587;28;38061;-61
2022/08/18 00:22:00;;;;;;;10.43;3.90;;;19.70;99.90;;;;;;4958530;28;37828;-60
2022/08/18 00:24:27;;;;;;;12.52;4.63;;;19.70;99.90;;;;;;4957736;28;38593;-61
2022/08/18 00:26:54;;;;;;;9.40;3.28;;;19.60;99.90;;;;;;4958300;28;35088;-61
2022/08/18 00:29:21;;;;;;;12.48;4.78;;;19.60;99.90;;;;;;4956445;28;38836;-57
2022/08/18 00:31:49;;;;;;;12.27;4.75;;;19.60;99.90;;;;;;4956538;28;38190;-58
2022/08/18 00:34:16;;;;;;;11.40;4.20;;;19.60;99.90;;;;;;4957242;28;37912;-58
2022/08/18 00:36:45;;;;;;;10.40;4.60;;;19.60;99.90;;;;;;4957030;28;36434;-58
2022/08/18 00:39:12;;;;;;;18.40;4.47;;;19.60;99.90;;;;;;4956378;28;38044;-57
2022/08/18 00:41:40;;;;;;;11.00;4.28;;;19.60;99.90;;;;;;4956053;28;38177;-57
2022/08/18 00:44:07;;;;;;;12.13;4.30;;;19.60;99.90;;;;;;4957327;28;37769;-57
2022/08/18 00:46:37;;;;;;;15.73;5.07;;;19.60;99.90;;;;;;4956640;28;36793;-57
2022/08/18 00:49:05;;;;;;;18.98;5.13;;;19.60;99.90;;;;;;4957278;28;36286;-58
2022/08/18 00:51:38;;;;;;;19.48;4.32;;;19.70;99.90;;;;;;4956572;28;36986;-57
2022/08/18 00:54:11;;;;;;;10.82;4.53;;;19.70;99.90;;;;;;4956855;28;38043;-57
2022/08/18 00:56:44;;;;;;;16.60;4.57;;;19.70;99.90;;;;;;4956121;28;35209;-57
2022/08/18 00:59:17;;;;;;;15.02;4.40;;;19.70;99.90;;;;;;4957525;28;39622;-57
2022/08/18 01:01:46;;;;;;;12.68;4.65;;;19.70;99.90;;;;;;4956953;28;37822;-57
2022/08/18 01:04:17;;;;;;;14.82;4.60;;;19.60;99.90;;;;;;4957380;28;36584;-58
2022/08/18 01:06:50;;;;;;;16.25;5.43;;;19.60;99.90;;;;;;4958201;28;36333;-58
2022/08/18 01:09:19;;;;;;;11.98;4.38;;;19.60;99.90;;;;;;4957220;28;37448;-57
2022/08/18 01:11:47;;;;;;;11.13;4.70;;;19.60;99.90;;;;;;4957369;28;38321;-57
2022/08/18 01:14:17;;;;;;;10.20;4.78;;;19.70;99.90;;;;;;4956908;28;38394;-57
2022/08/18 01:22:24;;;;;;;12.82;5.75;;;19.60;99.90;;;;;;4959555;28;38096;-61
2022/08/18 01:27:41;;;;;;;9.48;4.40;;;19.60;99.90;;;;;;4960467;28;40067;-61
2022/08/18 01:30:12;;;;;;;16.88;4.85;;;19.60;99.90;;;;;;4960689;28;37517;-61
2022/08/18 01:32:43;;;;;;;11.52;4.35;;;19.70;99.90;;;;;;4960229;28;38459;-61
2022/08/18 01:35:11;;;;;;;13.02;4.68;;;19.60;99.90;;;;;;4960420;28;38705;-61
2022/08/18 01:37:40;;;;;;;11.68;4.72;;;19.60;99.90;;;;;;4960642;28;37114;-61
2022/08/18 01:40:11;;;;;;;15.40;4.45;;;19.70;99.90;;;;;;4959502;28;37163;-61
2022/08/18 01:42:42;;;;;;;16.50;5.22;;;19.70;99.90;;;;;;4961214;28;37951;-61
2022/08/18 01:45:11;;;;;;;13.85;5.00;;;19.70;99.90;;;;;;4961536;28;37881;-61
2022/08/18 01:47:39;;;;;;;13.27;4.88;;;19.70;99.90;;;;;;4960531;28;36858;-60
2022/08/18 01:50:09;;;;;;;10.43;4.60;;;19.70;99.90;;;;;;4960153;28;38850;-61
2022/08/18 01:52:36;;;;;;;8.27;4.07;;;19.70;99.90;;;;;;4960800;28;36965;-61
2022/08/18 01:55:06;;;;;;;12.40;4.82;;;19.70;99.90;;;;;;4960072;28;37782;-61
2022/08/18 01:57:37;;;;;;;14.02;4.80;;;19.70;99.90;;;;;;4959425;28;35291;-61
2022/08/18 02:00:06;;;;;;;14.02;5.22;;;19.70;99.90;;;;;;4960535;28;36291;-60
2022/08/18 02:02:33;;;;;;;15.15;5.43;;;19.70;99.90;;;;;;4960659;28;36924;-57
2022/08/18 02:05:05;;;;;;;12.38;4.43;;;19.60;99.90;;;;;;4959538;28;37006;-57
2022/08/18 02:07:33;;;;;;;14.60;5.38;;;19.70;99.90;;;;;;4960084;28;38864;-57
2022/08/18 02:10:00;;;;;;;17.40;5.03;;;19.70;99.90;;;;;;4959843;28;37452;-57
2022/08/18 02:12:28;;;;;;;7.97;4.97;;;19.60;99.90;;;;;;4960819;28;38896;-58
2022/08/18 02:14:56;;;;;;;14.27;5.07;;;19.60;99.90;;;;;;4960428;28;38128;-57
2022/08/18 02:17:24;;;;;;;13.52;4.70;;;19.70;99.90;;;;;;4959322;28;35280;-57
2022/08/18 02:19:52;;;;;;;15.52;5.68;;;19.70;99.90;;;;;;4959297;28;37517;-57
2022/08/18 02:22:21;;;;;;;10.73;4.55;;;19.70;99.90;;;;;;4960038;28;38645;-57
2022/08/18 02:24:49;;;;;;;14.07;5.47;;;19.70;99.90;;;;;;4958243;28;38248;-58
2022/08/18 02:27:17;;;;;;;11.88;4.57;;;19.70;99.90;;;;;;4960415;28;36598;-58
2022/08/18 02:29:44;;;;;;;10.02;4.93;;;19.60;99.90;;;;;;4959439;28;38761;-57
2022/08/18 02:32:13;;;;;;;10.20;4.35;;;19.60;99.90;;;;;;4959325;28;38517;-57
2022/08/18 02:34:41;;;;;;;9.80;5.03;;;19.60;99.90;;;;;;4958935;28;37745;-57
2022/08/18 02:37:09;;;;;;;13.68;4.78;;;19.60;99.90;;;;;;4958839;28;36152;-58
2022/08/18 02:39:38;;;;;;;10.32;5.35;;;19.60;99.90;;;;;;4958635;28;37014;-57
2022/08/18 02:42:06;;;;;;;10.90;5.10;;;19.70;99.90;;;;;;4958495;28;38082;-57
2022/08/18 02:44:34;;;;;;;12.15;5.18;;;19.70;99.90;;;;;;4958225;28;37930;-57
2022/08/18 02:47:01;;;;;;;12.57;4.85;;;19.70;99.90;;;;;;4958069;28;37323;-57
2022/08/18 02:49:30;;;;;;;12.02;6.25;;;19.70;99.90;;;;;;4960193;28;37058;-57
2022/08/18 02:51:57;;;;;;;12.05;5.38;;;19.70;99.90;;;;;;4958973;28;36982;-57
2022/08/18 02:54:25;;;;;;;12.23;5.57;;;19.70;99.90;;;;;;4959536;28;39321;-57
2022/08/18 02:56:53;;;;;;;13.15;5.35;;;19.70;99.90;;;;;;4958185;28;36555;-58
2022/08/18 02:59:23;;;;;;;13.93;5.40;;;19.70;99.90;;;;;;4959441;28;38482;-57
2022/08/18 03:01:54;;;;;;;14.27;5.97;;;19.70;99.90;;;;;;4958308;28;39540;-57
2022/08/18 03:04:24;;;;;;;10.55;5.00;;;19.70;99.90;;;;;;4959324;28;37735;-57
2022/08/18 03:06:53;;;;;;;9.75;5.45;;;19.70;99.90;;;;;;4957362;28;37503;-57
2022/08/18 03:09:21;;;;;;;12.73;5.85;;;19.70;99.90;;;;;;4958645;28;37592;-58
2022/08/18 03:11:48;;;;;;;13.93;5.70;;;19.70;99.90;;;;;;4959429;28;37889;-58
2022/08/18 03:14:16;;;;;;;11.57;5.43;;;19.70;99.90;;;;;;4959007;28;37424;-58
2022/08/18 03:16:46;;;;;;;13.35;6.05;;;19.70;99.90;;;;;;4959061;28;37403;-57
2022/08/18 03:19:15;;;;;;;10.77;5.72;;;19.70;99.90;;;;;;4959610;28;38295;-58
2022/08/18 03:21:44;;;;;;;16.80;6.07;;;19.70;99.90;;;;;;4958472;28;37074;-58
2022/08/18 03:24:13;;;;;;;15.73;6.45;;;19.70;99.90;;;;;;4957814;28;37910;-57
2022/08/18 03:26:42;;;;;;;10.25;5.45;;;19.60;99.90;;;;;;4959042;28;37943;-57
2022/08/18 03:29:10;;;;;;;11.50;6.18;;;19.70;99.90;;;;;;4957627;28;37791;-58
2022/08/18 03:31:39;;;;;;;11.60;6.28;;;19.60;99.90;;;;;;4959553;28;38349;-57
2022/08/18 03:34:08;;;;;;;17.40;7.03;;;19.60;99.90;;;;;;4958301;28;37799;-57
2022/08/18 03:36:36;;;;;;;9.77;6.03;;;19.60;99.90;;;;;;4956785;28;36302;-57
2022/08/18 03:39:05;;;;;;;10.82;5.90;;;19.60;99.90;;;;;;4957050;28;37436;-57
2022/08/18 03:41:34;;;;;;;12.23;6.57;;;19.60;99.90;;;;;;4957693;28;38196;-57
2022/08/18 03:44:02;;;;;;;11.82;5.55;;;19.60;99.90;;;;;;4957357;28;37545;-57
2022/08/18 03:46:29;;;;;;;17.77;6.72;;;19.60;99.90;;;;;;4959724;28;36351;-57
2022/08/18 03:48:58;;;;;;;12.70;5.65;;;19.60;99.90;;;;;;4958726;28;37500;-58
2022/08/18 03:51:27;;;;;;;14.60;6.20;;;19.60;99.90;;;;;;4956951;28;38220;-57
2022/08/18 03:53:57;;;;;;;14.40;6.07;;;19.60;99.90;;;;;;4957896;28;37439;-57
2022/08/18 03:56:27;;;;;;;10.57;6.53;;;19.60;99.90;;;;;;4957583;28;36518;-57
2022/08/18 03:58:58;;;;;;;12.93;6.43;;;19.70;99.90;;;;;;4958348;28;38758;-57
2022/08/18 04:01:27;;;;;;;10.80;5.90;;;19.60;99.90;;;;;;4958377;28;38322;-57
2022/08/18 04:03:57;;;;;;;17.23;6.95;;;19.70;99.90;;;;;;4958014;28;39121;-57
2022/08/18 04:06:27;;;;;;;11.02;6.30;;;19.70;99.90;;;;;;4958311;28;37064;-58
2022/08/18 04:08:56;;;;;;;16.13;6.18;;;19.60;99.90;;;;;;4955989;28;37035;-57
2022/08/18 04:11:24;;;;;;;12.73;5.43;;;19.70;99.90;;;;;;4957388;28;37122;-57
2022/08/18 04:13:51;;;;;;;11.23;6.32;;;19.70;99.90;;;;;;4957825;28;39033;-58
2022/08/18 04:16:20;;;;;;;11.25;6.35;;;19.60;99.90;;;;;;4958987;28;36299;-58
2022/08/18 04:18:47;;;;;;;11.25;6.72;;;19.70;99.90;;;;;;4958017;28;37489;-57
2022/08/18 04:21:15;;;;;;;11.00;6.85;;;19.60;99.90;;;;;;4957958;28;36813;-58
2022/08/18 04:23:42;;;;;;;10.57;6.95;;;19.60;99.90;;;;;;4958881;28;39320;-57
2022/08/18 04:26:11;;;;;;;9.98;6.47;;;19.70;99.90;;;;;;4957030;28;36205;-57
2022/08/18 04:28:40;;;;;;;10.43;6.85;;;19.70;99.90;;;;;;4958038;28;37619;-58
2022/08/18 04:31:08;;;;;;;13.70;6.95;;;19.70;99.90;;;;;;4957321;28;39666;-57
2022/08/18 04:33:38;;;;;;;14.23;7.22;;;19.70;99.90;;;;;;4957665;28;38626;-57
2022/08/18 04:36:10;;;;;;;9.70;6.80;;;19.60;99.90;;;;;;4958289;28;37095;-58
2022/08/18 04:38:38;;;;;;;9.98;7.78;;;19.60;99.90;;;;;;4957182;28;38593;-57
2022/08/18 04:41:06;;;;;;;9.73;7.05;;;19.60;99.90;;;;;;4955650;28;38070;-57
2022/08/18 04:43:34;;;;;;;10.60;6.95;;;19.70;99.90;;;;;;4959371;28;20142;-57
2022/08/18 04:46:02;;;;;;;15.68;7.85;;;19.70;99.90;;;;;;4958631;28;35314;-57
2022/08/18 04:48:32;;;;;;;12.00;7.25;;;19.70;99.90;;;;;;4957278;28;37557;-58
2022/08/18 04:51:09;;;;;;;10.57;6.93;;;19.60;99.90;;;;;;4958712;28;38770;-57
2022/08/18 04:53:45;;;;;;;11.55;7.07;;;19.70;99.90;;;;;;4961406;28;36366;-57
2022/08/18 04:56:24;;;;;;;9.50;6.68;;;19.70;99.90;;;;;;4961093;28;37203;-58
2022/08/18 04:58:53;;;;;;;10.85;7.30;;;19.70;99.90;;;;;;4960957;28;36354;-58
2022/08/18 05:01:22;;;;;;;11.55;7.57;;;19.70;99.90;;;;;;4960175;28;37142;-57
2022/08/18 05:03:50;;;;;;;11.15;7.43;;;19.70;99.90;;;;;;4960610;28;38066;-58
2022/08/18 05:06:23;;;;;;;8.52;7.15;;;19.70;99.90;;;;;;4960958;28;36349;-57
2022/08/18 05:08:52;;;;;;;12.25;7.05;;;19.70;99.90;;;;;;4959554;28;37512;-57
2022/08/18 05:11:21;;;;;;;10.85;6.97;;;19.70;99.90;;;;;;4959232;28;38643;-57
2022/08/18 05:13:48;;;;;;;9.77;6.38;;;19.70;99.90;;;;;;4960888;28;38002;-58
2022/08/18 05:16:16;;;;;;;10.05;6.57;;;19.70;99.90;;;;;;4961847;28;36976;-57
2022/08/18 05:18:43;;;;;;;11.93;6.40;;;19.70;99.90;;;;;;4961103;28;38221;-57
2022/08/18 05:21:13;;;;;;;11.90;6.40;;;19.70;99.90;;;;;;4959943;28;40445;-58
2022/08/18 05:23:42;;;;;;;8.27;5.78;;;19.70;99.90;;;;;;4960990;28;36741;-58
2022/08/18 05:26:10;;;;;;;10.88;6.30;;;19.70;99.90;;;;;;4960674;28;35795;-58
2022/08/18 05:28:38;;;;;;;11.93;5.75;;;19.80;99.90;;;;;;4960740;28;36305;-57
2022/08/18 05:31:10;;;;;;;10.43;5.57;;;19.80;99.90;;;;;;4960632;28;38496;-57
2022/08/18 05:33:39;;;;;;;8.88;4.60;;;19.80;99.90;;;;;;4960527;28;37847;-58
2022/08/18 05:36:16;;;;;;;9.38;5.28;;;19.80;99.90;;;;;;4960333;28;36281;-57
2022/08/18 05:38:54;;;;;;;7.80;4.50;;;19.90;99.90;;;;;;4959825;28;37732;-58
2022/08/18 05:41:28;;;;;;;10.88;4.85;;;19.90;99.90;;;;;;4958635;28;38138;-58
2022/08/18 05:43:57;;;;;;;6.78;4.35;;;19.90;99.90;;;;;;4959188;28;36795;-58
2022/08/18 05:46:40;;;;;;;8.55;4.15;;;19.90;99.90;;;;;;4959930;28;36297;-58
2022/08/18 05:49:07;;;;;;;9.98;4.18;;;19.90;99.90;;;;;;4959881;28;36394;-57
2022/08/18 05:51:40;;;;;;;10.02;4.70;;;19.90;99.90;;;;;;4957179;28;39048;-58
2022/08/18 05:56:56;;;;;;;11.73;5.00;;;19.90;99.90;;;;;;4958794;28;37970;-57
2022/08/18 05:59:28;;;;;;;9.85;4.53;;;19.90;99.90;;;;;;4958039;28;39360;-58
2022/08/18 06:02:03;;;;;;;9.27;4.78;;;19.90;99.90;;;;;;4954544;28;38063;-58
2022/08/18 06:04:42;;;;;;;9.98;4.13;;;19.90;99.90;;;;;;4958064;28;37849;-58
2022/08/18 06:07:15;;;;;;;14.13;5.28;;;19.90;99.90;;;;;;4958037;28;37108;-57
2022/08/18 06:09:49;;;;;;;8.52;4.07;;;19.90;99.90;;;;;;4958282;28;37698;-58
2022/08/18 06:12:25;;;;;;;9.40;4.03;;;19.90;99.90;;;;;;4959696;28;38320;-57
2022/08/18 06:14:59;;;;;;;9.93;3.50;;;19.90;99.90;;;;;;4959526;28;37675;-57
2022/08/18 06:17:47;;;;;;;8.45;3.28;;;19.90;99.90;;;;;;4960004;28;36433;-58
2022/08/18 06:20:21;;;;;;;9.05;3.35;;;19.90;99.90;;;;;;4959184;28;39058;-58
2022/08/18 06:22:56;;;;;;;8.18;3.83;;;19.90;99.90;;;;;;4959602;28;37068;-58
2022/08/18 06:25:33;;;;;;;8.65;4.10;;;19.90;99.90;;;;;;4958308;28;38354;-58
2022/08/18 06:28:07;;;;;;;9.05;3.92;;;19.90;99.90;;;;;;4959732;28;36796;-58
2022/08/18 06:30:50;;;;;;;10.52;4.00;;;19.90;99.90;;;;;;4959360;28;37448;-58
2022/08/18 06:33:35;;;;;;;8.57;4.05;;;19.90;99.90;;;;;;4960119;28;37848;-58
2022/08/18 06:36:12;;;;;;;11.13;3.40;;;19.80;99.90;;;;;;4958813;28;36572;-58
2022/08/18 06:38:52;;;;;;;13.45;3.30;;;19.80;99.90;;;;;;4958851;28;37017;-58
2022/08/18 06:41:24;;;;;;;5.70;3.10;;;19.80;99.90;;;;;;4958045;28;38999;-57
2022/08/18 06:43:59;;;;;;;11.00;2.95;;;19.80;99.90;;;;;;4958012;28;39063;-57
2022/08/18 06:46:40;;;;;;;8.57;2.63;;;19.80;99.90;;;;;;4957173;28;36568;-57
2022/08/18 06:49:10;;;;;;;4.35;1.90;;;19.70;99.90;;;;;;4956386;28;35509;-58
2022/08/18 06:51:38;;;;;;;5.40;1.30;;;19.70;99.90;;;;;;4958526;28;37825;-58
2022/08/18 06:54:08;;;;;;;2.60;1.20;;;19.70;99.90;;;;;;4959672;28;38190;-57
2022/08/18 06:56:50;;;;;;;4.53;1.10;;;19.60;99.90;;;;;;4959810;28;37797;-57
2022/08/18 06:59:24;;;;;;;3.20;1.20;;;19.60;99.90;;;;;;4959260;28;37227;-58
2022/08/18 07:01:52;;;;;;;;;;;19.50;99.90;;;;;;4959461;28;38593;-58
2022/08/18 07:04:38;;;;;;;6.88;1.52;;;19.50;99.90;;;;;;4959123;28;37280;-58
2022/08/18 07:07:31;;;;;;;4.93;1.65;;;19.40;99.90;;;;;;4956599;28;37992;-58
2022/08/18 07:09:59;;;;;;;7.10;1.50;;;19.40;99.90;;;;;;4958741;28;36543;-57
2022/08/18 07:12:29;;;;;;;6.22;1.85;;;19.40;99.90;;;;;;4959385;28;37485;-58
2022/08/18 07:14:59;;;;;;;7.78;2.28;;;19.40;99.90;;;;;;4958074;28;36929;-58
2022/08/18 07:17:28;;;;;;;8.00;2.40;;;19.40;99.90;;;;;;4959293;28;38115;-58
2022/08/18 07:20:05;;;;;;;9.00;2.50;;;19.40;99.90;;;;;;4960905;28;36590;-60
2022/08/18 07:22:32;;;;;;;11.52;2.47;;;19.40;99.90;;;;;;4957467;28;39095;-60
2022/08/18 07:25:03;;;;;;;7.60;2.35;;;19.40;99.90;;;;;;4960161;28;37670;-60
2022/08/18 07:27:45;;;;;;;8.27;2.30;;;19.40;99.90;;;;;;4959832;28;37458;-60
2022/08/18 07:30:26;;;;;;;8.05;2.13;;;19.40;99.90;;;;;;4959633;28;36601;-60
2022/08/18 07:33:01;;;;;;;7.93;2.00;;;19.30;99.90;;;;;;4958995;28;37374;-60
2022/08/18 07:35:48;;;;;;;5.97;1.85;;;19.40;99.90;;;;;;4958845;28;38044;-61
2022/08/18 07:38:23;;;;;;;7.05;1.90;;;19.40;99.90;;;;;;4957583;28;39091;-60
2022/08/18 07:40:56;;;;;;;6.55;1.90;;;19.40;99.90;;;;;;4959105;28;36960;-60
2022/08/18 07:43:28;;;;;;;;;;;19.40;99.90;;;;;;4959487;28;37409;-60
2022/08/18 07:46:01;;;;;;;9.45;2.33;;;19.50;99.90;;;;;;4959621;28;38434;-60
2022/08/18 07:48:33;;;;;;;8.43;1.88;;;19.50;99.90;;;;;;4958857;28;36606;-60
2022/08/18 07:51:12;;;;;;;9.00;1.85;;;19.60;99.90;;;;;;4958713;28;35367;-60
2022/08/18 07:53:51;;;;;;;9.80;2.53;;;19.60;99.90;;;;;;4958828;28;37443;-60
2022/08/18 07:56:28;;;;;;;7.85;1.98;;;19.70;99.90;;;;;;4957935;28;38845;-60
2022/08/18 07:59:03;;;;;;;6.80;1.80;;;19.70;99.90;;;;;;4958982;28;36384;-60
2022/08/18 08:01:39;;;;;;;5.68;1.60;;;19.80;99.90;;;;;;4957679;28;36385;-60
2022/08/18 08:04:15;;;;;;;6.68;1.90;;;19.90;99.90;;;;;;4957346;28;37386;-60
2022/08/18 08:06:48;;;;;;;5.63;1.73;;;19.90;99.90;;;;;;4955823;28;40946;-60
2022/08/18 08:09:20;;;;;;;;;;;19.90;99.90;;;;;;4957543;28;37858;-60
2022/08/18 08:11:55;;;;;;;4.75;2.00;;;19.90;99.90;;;;;;4957394;28;36600;-60
2022/08/18 08:14:37;;;;;;;8.23;1.90;;;19.90;99.90;;;;;;4957526;28;37522;-60
2022/08/18 08:17:12;;;;;;;8.25;1.70;;;19.90;99.90;;;;;;4957701;28;36910;-60
2022/08/18 08:19:49;;;;;;;7.70;1.92;;;19.80;99.90;;;;;;4957551;28;38027;-61
2022/08/18 08:22:20;;;;;;;5.38;1.45;;;19.80;99.90;;;;;;4957619;28;35281;-61
2022/08/18 08:24:57;;;;;;;4.95;1.60;;;19.80;99.90;;;;;;4958480;28;36365;-60
2022/08/18 08:27:33;;;;;;;5.45;2.13;;;19.90;99.90;;;;;;4957613;28;38542;-61
2022/08/18 08:30:07;;;;;;;4.53;2.13;;;19.90;99.90;;;;;;4958536;28;37522;-60
2022/08/18 08:32:37;;;;;;;5.55;1.70;;;19.90;99.90;;;;;;4957374;28;37405;-60
2022/08/18 08:35:11;;;;;;;4.70;1.63;;;20.00;99.90;;;;;;4956968;28;38527;-61
2022/08/18 08:37:43;;;;;;;5.32;1.88;;;19.90;99.90;;;;;;4956474;28;38993;-61
2022/08/18 08:40:17;;;;;;;5.68;1.38;;;20.00;99.90;;;;;;4956826;28;37823;-61
2022/08/18 08:42:51;;;;;;;5.20;1.35;;;19.90;99.90;;;;;;4956724;28;37263;-58
2022/08/18 08:45:24;;;;;;;3.97;1.50;;;19.90;99.90;;;;;;4958086;28;36316;-58
2022/08/18 08:47:59;;;;;;;4.32;1.55;;;19.80;99.90;;;;;;4955706;28;38441;-58
2022/08/18 08:50:30;;;;;;;5.45;1.85;;;19.80;99.90;;;;;;4956771;28;37767;-58
2022/08/18 08:53:02;;;;;;;3.95;1.45;;;19.80;99.90;;;;;;4957869;28;35931;-58
2022/08/18 08:55:33;;;;;;;7.60;1.88;;;19.80;99.90;;;;;;4957460;28;40311;-58
2022/08/18 08:58:16;;;;;;;6.93;2.28;;;19.90;99.90;;;;;;4957115;28;37514;-58
2022/08/18 09:00:46;;;;;;;3.80;1.70;;;19.90;99.90;;;;;;4955976;28;37593;-58
2022/08/18 09:03:25;;;;;;;4.13;1.92;;;19.90;99.90;;;;;;4957600;28;36449;-58
2022/08/18 09:06:03;;;;;;;3.45;1.60;;;20.00;99.90;;;;;;4957712;28;37409;-57
2022/08/18 09:09:02;;;;;;;5.00;1.70;;;20.00;99.90;;;;;;4956965;28;38527;-58
2022/08/18 09:11:52;;;;;;;5.57;1.48;;;20.00;99.90;;;;;;4957043;28;40648;-58
2022/08/18 09:15:05;;;;;;;4.88;1.65;;;20.00;99.90;;;;;;4952976;28;36864;-58
2022/08/18 09:17:49;;;;;;;3.53;1.60;;;20.00;99.90;;;;;;4956304;28;37443;-58
2022/08/18 09:20:34;;;;;;;4.40;1.60;;;20.00;99.90;;;;;;4955636;28;38250;-58
2022/08/18 09:23:05;;;;;;;3.97;1.52;;;20.00;99.90;;;;;;4956911;28;36338;-58
2022/08/18 09:25:46;;;;;;;2.47;1.58;;;20.00;99.90;;;;;;4957096;28;37980;-61
2022/08/18 09:28:16;;;;;;;4.85;2.00;;;20.10;99.90;;;;;;4957199;28;37732;-61
2022/08/18 09:30:48;;;;;;;6.22;2.47;;;20.10;99.90;;;;;;4957251;28;38151;-60
2022/08/18 09:33:44;;;;;;;6.97;2.20;;;20.30;99.90;;;;;;4956998;28;37841;-61
2022/08/18 09:36:28;;;;;;;5.22;1.60;;;20.50;99.90;;;;;;4956955;28;35871;-61
2022/08/18 09:41:49;;;;;;;4.25;1.58;;;20.70;99.90;;;;;;4959729;28;38988;-61
2022/08/18 09:44:46;;;;;;;3.42;1.35;;;20.60;99.90;;;;;;4959402;28;37709;-61
2022/08/18 09:47:52;;;;;;;4.15;1.85;;;20.60;99.90;;;;;;4943836;28;37367;-61
2022/08/18 09:50:52;;;;;;;3.05;1.20;;;20.60;99.90;;;;;;4958790;28;37644;-61
2022/08/18 09:53:36;;;;;;;7.40;1.73;;;20.60;99.90;;;;;;4958933;28;39485;-61
2022/08/18 09:56:05;;;;;;;6.28;1.85;;;20.70;99.90;;;;;;4959384;28;36601;-61
2022/08/18 09:58:54;;;;;;;4.72;1.90;;;20.90;99.90;;;;;;4958856;28;37603;-58
2022/08/18 10:01:33;;;;;;;5.65;1.75;;;21.00;99.90;;;;;;4959513;28;36095;-58
2022/08/18 10:04:27;;;;;;;5.05;1.35;;;20.90;99.90;;;;;;4959125;28;40026;-58
2022/08/18 10:07:15;;;;;;;3.75;1.40;;;20.90;99.90;;;;;;4958401;28;37860;-58
2022/08/18 10:10:06;;;;;;;5.05;1.65;;;20.80;99.90;;;;;;4959240;28;37282;-58
2022/08/18 10:12:51;;;;;;;4.00;1.40;;;20.80;99.90;;;;;;4958848;28;37475;-58
2022/08/18 10:15:36;;;;;;;8.63;1.73;;;20.80;99.90;;;;;;4958287;28;37057;-58
2022/08/18 10:18:39;;;;;;;5.55;1.50;;;20.70;99.90;;;;;;4958860;28;39167;-58
2022/08/18 10:21:21;;;;;;;6.35;1.83;;;20.70;99.90;;;;;;4939758;28;38036;-58
2022/08/18 10:23:54;;;;;;;6.65;2.00;;;20.70;99.90;;;;;;4958799;28;37742;-58
2022/08/18 10:27:07;;;;;;;5.57;1.33;;;20.70;99.90;;;;;;4957329;28;37909;-58
2022/08/18 10:29:53;;;;;;;5.15;1.42;;;20.60;99.90;;;;;;4959272;28;38152;-61
2022/08/18 10:32:38;;;;;;;4.95;1.73;;;20.60;99.90;;;;;;4958798;28;37544;-61
2022/08/18 10:35:27;;;;;;;4.93;1.60;;;20.60;99.90;;;;;;4960018;28;37838;-61
2022/08/18 10:37:56;;;;;;;6.15;1.42;;;20.60;99.90;;;;;;4958693;28;38642;-61
2022/08/18 10:40:26;;;;;;;4.40;1.45;;;20.60;99.90;;;;;;4957813;28;38108;-61
2022/08/18 10:43:07;;;;;;;4.07;1.50;;;20.60;99.90;;;;;;4959913;28;36372;-61
2022/08/18 10:45:36;;;;;;;5.60;1.83;;;20.60;99.90;;;;;;4959255;28;37035;-61
2022/08/18 10:48:10;;;;;;;4.78;1.70;;;20.60;99.90;;;;;;4958220;28;38264;-61
2022/08/18 10:50:44;;;;;;;7.13;2.13;;;20.70;99.90;;;;;;4958942;28;37798;-61
2022/08/18 10:53:19;;;;;;;5.82;1.75;;;20.70;99.90;;;;;;4957594;28;36690;-61
2022/08/18 10:55:53;;;;;;;5.65;1.75;;;20.70;99.90;;;;;;4958266;28;39554;-61
2022/08/18 10:58:58;;;;;;;6.13;2.28;;;20.70;99.90;;;;;;4957109;28;38131;-61
2022/08/18 11:01:49;;;;;;;4.95;1.65;;;20.70;99.90;;;;;;4952367;28;37603;-61
2022/08/18 11:04:27;;;;;;;4.45;1.50;;;20.80;99.90;;;;;;4953262;28;36533;-61
2022/08/18 11:07:02;;;;;;;4.30;1.52;;;20.80;99.90;;;;;;4956283;28;37762;-61
2022/08/18 11:09:31;;;;;;;8.50;2.00;;;20.80;99.90;;;;;;4955820;28;37604;-61
2022/08/18 11:12:02;;;;;;;8.57;1.98;;;20.80;99.90;;;;;;4956884;28;36524;-61
2022/08/18 11:15:10;;;;;;;6.65;1.83;;;20.80;99.90;;;;;;4956140;28;36063;-62
2022/08/18 11:17:52;;;;;;;6.22;2.00;;;20.80;99.90;;;;;;4957387;28;36432;-61
2022/08/18 11:20:23;;;;;;;4.95;1.58;;;20.80;99.90;;;;;;4957850;28;36983;-61
2022/08/18 11:22:53;;;;;;;7.50;2.25;;;20.80;99.90;;;;;;4957448;28;37732;-62
2022/08/18 11:25:28;;;;;;;5.00;2.20;;;20.90;99.90;;;;;;4957277;28;36083;-61
2022/08/18 11:27:58;;;;;;;8.38;3.08;;;21.10;99.90;;;;;;4957870;28;36538;-59
2022/08/18 11:30:29;;;;;;;5.68;2.47;;;21.30;99.90;;;;;;4958520;28;38336;-58
2022/08/18 11:32:56;;;;;;;4.68;2.33;;;21.30;99.90;;;;;;4957407;28;37604;-59
2022/08/18 11:35:29;;;;;;;6.70;2.33;;;21.30;99.90;;;;;;4958424;28;37146;-62
2022/08/18 11:37:59;;;;;;;6.30;2.13;;;21.30;99.90;;;;;;4956514;28;37538;-62
2022/08/18 11:40:34;;;;;;;6.30;2.40;;;21.30;99.90;;;;;;4956697;28;38133;-61
2022/08/18 11:43:06;;;;;;;5.63;2.38;;;21.30;99.90;;;;;;4956062;28;37521;-61
2022/08/18 11:45:47;;;;;;;5.78;1.70;;;21.30;99.90;;;;;;4961049;28;36702;-58
2022/08/18 11:48:19;;;;;;;7.68;2.38;;;21.30;99.90;;;;;;4960164;28;38334;-61
2022/08/18 11:50:50;;;;;;;4.82;2.17;;;21.30;99.90;;;;;;4960190;28;38263;-61
2022/08/18 11:53:26;;;;;;;6.95;1.92;;;21.20;99.90;;;;;;4962066;28;36445;-58
2022/08/18 11:56:04;;;;;;;4.90;1.90;;;21.30;99.90;;;;;;4962335;28;36335;-58
2022/08/18 11:58:44;;;;;;;7.35;2.15;;;21.40;99.90;;;;;;4962765;28;39843;-61
2022/08/18 12:01:30;;;;;;;3.58;1.50;;;21.40;99.90;;;;;;4962837;28;40717;-61
2022/08/18 12:03:59;;;;;;;5.47;2.00;;;21.50;99.90;;;;;;4963092;28;38528;-61
2022/08/18 12:06:29;;;;;;;3.75;1.70;;;21.50;99.90;;;;;;4962934;28;37793;-61
2022/08/18 12:09:01;;;;;;;4.10;1.60;;;21.60;99.90;;;;;;4962678;28;36217;-58
2022/08/18 12:11:31;;;;;;;3.10;1.52;;;21.60;99.90;;;;;;4962545;28;36876;-58
2022/08/18 12:14:07;;;;;;;2.88;1.42;;;21.60;99.90;;;;;;4963666;28;38105;-58
2022/08/18 12:16:38;;;;;;;4.10;1.48;;;21.60;99.90;;;;;;4961487;28;36591;-58
2022/08/18 12:19:08;;;;;;;4.60;1.60;;;21.60;99.90;;;;;;4963071;28;37410;-58
2022/08/18 12:21:38;;;;;;;4.35;1.52;;;21.60;99.90;;;;;;4961524;28;39407;-58
2022/08/18 12:24:08;;;;;;;6.18;2.00;;;21.60;99.90;;;;;;4963378;28;36549;-57
2022/08/18 12:26:36;;;;;;;8.60;1.92;;;21.70;99.90;;;;;;4962321;28;36931;-57
2022/08/18 12:29:04;;;;;;;4.53;1.88;;;21.70;99.90;;;;;;4960015;28;37380;-61
2022/08/18 12:31:32;;;;;;;5.30;1.70;;;21.80;99.90;;;;;;4962911;28;38299;-61
2022/08/18 12:33:59;;;;;;;4.80;1.88;;;21.80;99.90;;;;;;4963134;28;41251;-61
2022/08/18 12:36:28;;;;;;;4.13;1.63;;;21.90;99.90;;;;;;4961864;28;36470;-58
2022/08/18 12:38:56;;;;;;;3.47;1.60;;;21.90;99.90;;;;;;4961649;28;39282;-61
2022/08/18 12:41:23;;;;;;;5.03;1.70;;;22.00;99.90;;;;;;4962268;28;38332;-61
2022/08/18 12:43:52;;;;;;;4.47;1.40;;;22.00;99.90;;;;;;4962170;28;36197;-58
2022/08/18 12:46:21;;;;;;;4.22;2.10;;;22.10;99.90;;;;;;4963780;28;35316;-58
2022/08/18 12:48:49;;;;;;;10.07;1.98;;;22.10;99.90;;;;;;4963188;28;38587;-61
2022/08/18 12:51:16;;;;;;;3.35;1.70;;;22.20;99.90;;;;;;4962090;28;38857;-61
2022/08/18 12:53:44;;;;;;;4.00;1.63;;;22.30;99.90;;;;;;4963165;28;38317;-61
2022/08/18 12:56:19;;;;;;;9.10;2.25;;;22.40;99.90;;;;;;4963251;28;37495;-61
2022/08/18 12:58:47;;;;;;;4.38;1.80;;;22.40;99.90;;;;;;4962569;28;38835;-61
2022/08/18 13:01:14;;;;;;;3.90;1.83;;;22.30;99.90;;;;;;4962173;28;38665;-58
2022/08/18 13:03:43;;;;;;;2.72;1.38;;;22.20;99.90;;;;;;4961842;28;36331;-58
2022/08/18 13:06:11;;;;;;;4.55;1.70;;;22.00;99.90;;;;;;4962459;28;35454;-58
2022/08/18 13:08:38;;;;;;;4.65;1.80;;;22.10;99.90;;;;;;4960900;28;36284;-61
2022/08/18 13:11:09;;;;;;;3.63;1.63;;;22.10;99.90;;;;;;4961920;28;38319;-61
2022/08/18 13:13:38;;;;;;;4.38;1.80;;;22.10;99.90;;;;;;4964058;28;37695;-61
2022/08/18 13:16:06;;;;;;;4.63;1.60;;;22.10;99.90;;;;;;4966703;28;37209;-61
2022/08/18 13:18:34;;;;;;;5.32;2.10;;;22.10;99.90;;;;;;4965260;28;38359;-61
2022/08/18 13:21:03;;;;;;;4.35;1.80;;;22.20;99.90;;;;;;4966189;28;38588;-61
2022/08/18 13:23:31;;;;;;;5.80;2.10;;;22.30;99.90;;;;;;4963471;28;39518;-61
2022/08/18 13:26:00;;;;;;;5.45;1.98;;;22.20;99.90;;;;;;4966184;28;37282;-58
2022/08/18 13:28:29;;;;;;;3.55;1.75;;;22.20;99.90;;;;;;4965667;28;39483;-58